sensor_id;sensor_type;location;lat;lon;timestamp;temperature;humidity
35680;DHT22;21803;53.586;10.040;2022-10-23T00:01:33;21.20;55.70
35680;DHT22;21803;53.586;10.040;2022-10-23T00:04:20;21.20;55.70
35680;DHT22;21803;53.586;10.040;2022-10-23T00:06:46;21.20;55.70
35680;DHT22;21803;53.586;10.040;2022-10-23T00:09:15;21.20;55.70
35680;DHT22;21803;53.586;10.040;2022-10-23T00:11:42;21.20;55.70
35680;DHT22;21803;53.586;10.040;2022-10-23T00:14:09;21.20;55.70
35680;DHT22;21803;53.586;10.040;2022-10-23T00:16:35;21.20;55.70
35680;DHT22;21803;53.586;10.040;2022-10-23T00:19:01;21.20;55.70
35680;DHT22;21803;53.586;10.040;2022-10-23T00:21:27;21.20;55.70
35680;DHT22;21803;53.586;10.040;2022-10-23T00:23:52;21.20;55.70
35680;DHT22;21803;53.586;10.040;2022-10-23T00:26:18;21.20;55.70
35680;DHT22;21803;53.586;10.040;2022-10-23T00:28:46;21.20;55.70
35680;DHT22;21803;53.586;10.040;2022-10-23T00:31:12;21.20;55.70
35680;DHT22;21803;53.586;10.040;2022-10-23T00:33:38;21.20;55.60
35680;DHT22;21803;53.586;10.040;2022-10-23T00:36:06;21.20;55.60
35680;DHT22;21803;53.586;10.040;2022-10-23T00:38:33;21.20;55.60
35680;DHT22;21803;53.586;10.040;2022-10-23T00:40:58;21.20;55.60
35680;DHT22;21803;53.586;10.040;2022-10-23T00:43:26;21.20;55.60
35680;DHT22;21803;53.586;10.040;2022-10-23T00:45:53;21.30;55.60
35680;DHT22;21803;53.586;10.040;2022-10-23T00:48:19;21.20;55.60
35680;DHT22;21803;53.586;10.040;2022-10-23T00:50:46;21.20;55.60
35680;DHT22;21803;53.586;10.040;2022-10-23T00:53:12;21.20;55.60
35680;DHT22;21803;53.586;10.040;2022-10-23T00:55:39;21.20;55.60
35680;DHT22;21803;53.586;10.040;2022-10-23T00:58:10;21.20;55.50
35680;DHT22;21803;53.586;10.040;2022-10-23T01:00:46;21.20;55.50
35680;DHT22;21803;53.586;10.040;2022-10-23T01:03:15;21.20;55.60
35680;DHT22;21803;53.586;10.040;2022-10-23T01:05:52;21.20;55.60
35680;DHT22;21803;53.586;10.040;2022-10-23T01:08:34;21.20;55.50
35680;DHT22;21803;53.586;10.040;2022-10-23T01:11:27;21.20;55.50
35680;DHT22;21803;53.586;10.040;2022-10-23T01:16:37;21.20;55.50
35680;DHT22;21803;53.586;10.040;2022-10-23T01:19:19;21.20;55.60
35680;DHT22;21803;53.586;10.040;2022-10-23T01:21:57;21.20;55.50
35680;DHT22;21803;53.586;10.040;2022-10-23T01:29:58;21.20;55.50
35680;DHT22;21803;53.586;10.040;2022-10-23T01:32:41;21.20;55.50
35680;DHT22;21803;53.586;10.040;2022-10-23T01:35:13;21.20;55.50
35680;DHT22;21803;53.586;10.040;2022-10-23T01:41:15;21.20;55.50
35680;DHT22;21803;53.586;10.040;2022-10-23T01:43:55;21.20;55.60
35680;DHT22;21803;53.586;10.040;2022-10-23T01:46:25;21.20;55.50
35680;DHT22;21803;53.586;10.040;2022-10-23T01:48:55;21.20;55.50
35680;DHT22;21803;53.586;10.040;2022-10-23T01:51:25;21.20;55.50
35680;DHT22;21803;53.586;10.040;2022-10-23T01:53:55;21.20;55.50
35680;DHT22;21803;53.586;10.040;2022-10-23T01:56:26;21.20;55.50
35680;DHT22;21803;53.586;10.040;2022-10-23T01:58:55;21.20;55.50
35680;DHT22;21803;53.586;10.040;2022-10-23T02:01:24;21.20;55.50
35680;DHT22;21803;53.586;10.040;2022-10-23T02:03:51;21.20;55.50
35680;DHT22;21803;53.586;10.040;2022-10-23T02:06:17;21.20;55.50
35680;DHT22;21803;53.586;10.040;2022-10-23T02:08:43;21.20;55.50
35680;DHT22;21803;53.586;10.040;2022-10-23T02:11:14;21.20;55.50
35680;DHT22;21803;53.586;10.040;2022-10-23T02:21:54;21.20;55.40
35680;DHT22;21803;53.586;10.040;2022-10-23T02:24:30;21.20;55.40
35680;DHT22;21803;53.586;10.040;2022-10-23T02:27:00;21.20;55.40
35680;DHT22;21803;53.586;10.040;2022-10-23T02:29:36;21.20;55.40
35680;DHT22;21803;53.586;10.040;2022-10-23T02:32:04;21.20;55.40
35680;DHT22;21803;53.586;10.040;2022-10-23T02:34:31;21.20;55.40
35680;DHT22;21803;53.586;10.040;2022-10-23T02:36:56;21.20;55.40
35680;DHT22;21803;53.586;10.040;2022-10-23T02:39:23;21.20;55.30
35680;DHT22;21803;53.586;10.040;2022-10-23T02:42:07;21.20;55.40
35680;DHT22;21803;53.586;10.040;2022-10-23T02:56:04;21.20;55.40
35680;DHT22;21803;53.586;10.040;2022-10-23T02:58:35;21.20;55.30
35680;DHT22;21803;53.586;10.040;2022-10-23T03:01:08;21.20;55.30
35680;DHT22;21803;53.586;10.040;2022-10-23T03:03:38;21.20;55.30
35680;DHT22;21803;53.586;10.040;2022-10-23T03:06:05;21.20;55.30
35680;DHT22;21803;53.586;10.040;2022-10-23T03:08:48;21.20;55.30
35680;DHT22;21803;53.586;10.040;2022-10-23T03:11:14;21.30;55.30
35680;DHT22;21803;53.586;10.040;2022-10-23T03:13:39;21.20;55.30
35680;DHT22;21803;53.586;10.040;2022-10-23T03:16:05;21.20;55.30
35680;DHT22;21803;53.586;10.040;2022-10-23T03:18:30;21.20;55.20
35680;DHT22;21803;53.586;10.040;2022-10-23T03:20:56;21.20;55.30
35680;DHT22;21803;53.586;10.040;2022-10-23T03:23:21;21.20;55.30
35680;DHT22;21803;53.586;10.040;2022-10-23T03:25:47;21.20;55.20
35680;DHT22;21803;53.586;10.040;2022-10-23T03:28:12;21.20;55.30
35680;DHT22;21803;53.586;10.040;2022-10-23T03:30:38;21.20;55.20
35680;DHT22;21803;53.586;10.040;2022-10-23T03:33:03;21.20;55.20
35680;DHT22;21803;53.586;10.040;2022-10-23T03:35:29;21.20;55.30
35680;DHT22;21803;53.586;10.040;2022-10-23T03:37:55;21.20;55.20
35680;DHT22;21803;53.586;10.040;2022-10-23T03:40:20;21.20;55.20
35680;DHT22;21803;53.586;10.040;2022-10-23T03:42:46;21.20;55.20
35680;DHT22;21803;53.586;10.040;2022-10-23T03:45:11;21.20;55.20
35680;DHT22;21803;53.586;10.040;2022-10-23T03:47:36;21.20;55.20
35680;DHT22;21803;53.586;10.040;2022-10-23T03:50:09;21.20;55.20
35680;DHT22;21803;53.586;10.040;2022-10-23T03:52:34;21.20;55.20
35680;DHT22;21803;53.586;10.040;2022-10-23T03:55:00;21.20;55.20
35680;DHT22;21803;53.586;10.040;2022-10-23T03:57:26;21.20;55.10
35680;DHT22;21803;53.586;10.040;2022-10-23T03:59:52;21.10;55.10
35680;DHT22;21803;53.586;10.040;2022-10-23T04:02:17;21.20;55.10
35680;DHT22;21803;53.586;10.040;2022-10-23T04:04:43;21.20;55.10
35680;DHT22;21803;53.586;10.040;2022-10-23T04:07:09;21.20;55.10
35680;DHT22;21803;53.586;10.040;2022-10-23T04:09:34;21.20;55.10
35680;DHT22;21803;53.586;10.040;2022-10-23T04:12:00;21.20;55.10
35680;DHT22;21803;53.586;10.040;2022-10-23T04:14:26;21.20;55.10
35680;DHT22;21803;53.586;10.040;2022-10-23T04:16:51;21.20;55.00
35680;DHT22;21803;53.586;10.040;2022-10-23T04:19:17;21.20;55.10
35680;DHT22;21803;53.586;10.040;2022-10-23T04:21:43;21.20;55.10
35680;DHT22;21803;53.586;10.040;2022-10-23T04:24:08;21.20;55.10
35680;DHT22;21803;53.586;10.040;2022-10-23T04:26:34;21.20;55.10
35680;DHT22;21803;53.586;10.040;2022-10-23T04:28:59;21.20;55.10
35680;DHT22;21803;53.586;10.040;2022-10-23T04:31:25;21.20;55.00
35680;DHT22;21803;53.586;10.040;2022-10-23T04:33:50;21.20;55.00
35680;DHT22;21803;53.586;10.040;2022-10-23T04:36:16;21.20;55.00
35680;DHT22;21803;53.586;10.040;2022-10-23T04:38:42;21.20;55.00
35680;DHT22;21803;53.586;10.040;2022-10-23T04:41:07;21.30;55.10
35680;DHT22;21803;53.586;10.040;2022-10-23T04:43:33;21.20;55.00
35680;DHT22;21803;53.586;10.040;2022-10-23T04:45:59;21.20;55.00
35680;DHT22;21803;53.586;10.040;2022-10-23T04:48:24;21.20;55.00
35680;DHT22;21803;53.586;10.040;2022-10-23T04:50:59;21.20;55.00
35680;DHT22;21803;53.586;10.040;2022-10-23T04:53:25;21.10;54.90
35680;DHT22;21803;53.586;10.040;2022-10-23T04:55:53;21.20;54.90
35680;DHT22;21803;53.586;10.040;2022-10-23T04:58:18;21.20;54.90
35680;DHT22;21803;53.586;10.040;2022-10-23T05:00:45;21.20;55.00
35680;DHT22;21803;53.586;10.040;2022-10-23T05:03:10;21.20;54.90
35680;DHT22;21803;53.586;10.040;2022-10-23T05:05:36;21.20;54.90
35680;DHT22;21803;53.586;10.040;2022-10-23T05:08:02;23.70;56.10
35680;DHT22;21803;53.586;10.040;2022-10-23T05:10:28;21.20;54.90
35680;DHT22;21803;53.586;10.040;2022-10-23T05:12:54;21.20;54.90
35680;DHT22;21803;53.586;10.040;2022-10-23T05:15:19;21.20;54.90
35680;DHT22;21803;53.586;10.040;2022-10-23T05:17:47;21.20;54.90
35680;DHT22;21803;53.586;10.040;2022-10-23T05:20:19;21.20;54.90
35680;DHT22;21803;53.586;10.040;2022-10-23T05:22:46;21.20;54.90
35680;DHT22;21803;53.586;10.040;2022-10-23T05:25:15;21.20;54.90
35680;DHT22;21803;53.586;10.040;2022-10-23T05:27:40;21.20;54.80
35680;DHT22;21803;53.586;10.040;2022-10-23T05:30:06;21.20;54.80
35680;DHT22;21803;53.586;10.040;2022-10-23T05:32:32;21.20;54.80
35680;DHT22;21803;53.586;10.040;2022-10-23T05:35:00;21.20;54.80
35680;DHT22;21803;53.586;10.040;2022-10-23T05:37:27;21.20;54.80
35680;DHT22;21803;53.586;10.040;2022-10-23T05:39:53;21.20;54.80
35680;DHT22;21803;53.586;10.040;2022-10-23T05:42:18;21.20;54.80
35680;DHT22;21803;53.586;10.040;2022-10-23T05:44:44;21.20;54.80
35680;DHT22;21803;53.586;10.040;2022-10-23T05:47:09;21.20;54.80
35680;DHT22;21803;53.586;10.040;2022-10-23T05:49:35;21.20;54.80
35680;DHT22;21803;53.586;10.040;2022-10-23T05:52:01;21.10;54.70
35680;DHT22;21803;53.586;10.040;2022-10-23T05:54:26;21.10;55.30
35680;DHT22;21803;53.586;10.040;2022-10-23T05:56:52;21.20;54.70
35680;DHT22;21803;53.586;10.040;2022-10-23T05:59:17;21.20;54.80
35680;DHT22;21803;53.586;10.040;2022-10-23T06:01:43;21.20;54.70
35680;DHT22;21803;53.586;10.040;2022-10-23T06:04:08;21.20;54.80
35680;DHT22;21803;53.586;10.040;2022-10-23T06:06:34;21.10;54.70
35680;DHT22;21803;53.586;10.040;2022-10-23T06:09:01;21.20;54.80
35680;DHT22;21803;53.586;10.040;2022-10-23T06:11:27;21.20;54.70
35680;DHT22;21803;53.586;10.040;2022-10-23T06:13:52;21.20;54.70
35680;DHT22;21803;53.586;10.040;2022-10-23T06:16:21;21.10;54.70
35680;DHT22;21803;53.586;10.040;2022-10-23T06:18:47;21.20;54.70
35680;DHT22;21803;53.586;10.040;2022-10-23T06:21:14;21.20;54.60
35680;DHT22;21803;53.586;10.040;2022-10-23T06:23:41;21.20;54.70
35680;DHT22;21803;53.586;10.040;2022-10-23T06:26:09;21.20;54.70
35680;DHT22;21803;53.586;10.040;2022-10-23T06:28:35;21.20;54.70
35680;DHT22;21803;53.586;10.040;2022-10-23T06:31:05;21.20;54.70
35680;DHT22;21803;53.586;10.040;2022-10-23T06:33:31;21.20;54.70
35680;DHT22;21803;53.586;10.040;2022-10-23T06:35:56;21.20;54.70
35680;DHT22;21803;53.586;10.040;2022-10-23T06:38:22;21.20;54.70
35680;DHT22;21803;53.586;10.040;2022-10-23T06:40:55;21.20;54.70
35680;DHT22;21803;53.586;10.040;2022-10-23T06:43:20;21.10;54.60
35680;DHT22;21803;53.586;10.040;2022-10-23T06:45:46;21.20;54.70
35680;DHT22;21803;53.586;10.040;2022-10-23T06:48:12;21.20;54.60
35680;DHT22;21803;53.586;10.040;2022-10-23T06:50:37;21.20;54.60
35680;DHT22;21803;53.586;10.040;2022-10-23T06:53:04;21.20;54.70
35680;DHT22;21803;53.586;10.040;2022-10-23T06:55:30;21.20;54.60
35680;DHT22;21803;53.586;10.040;2022-10-23T06:57:56;21.10;54.50
35680;DHT22;21803;53.586;10.040;2022-10-23T07:00:22;21.20;54.60
35680;DHT22;21803;53.586;10.040;2022-10-23T07:02:48;21.20;54.60
35680;DHT22;21803;53.586;10.040;2022-10-23T07:05:13;21.20;54.60
35680;DHT22;21803;53.586;10.040;2022-10-23T07:07:39;21.20;54.50
35680;DHT22;21803;53.586;10.040;2022-10-23T07:10:05;21.20;54.60
35680;DHT22;21803;53.586;10.040;2022-10-23T07:12:30;21.20;54.60
35680;DHT22;21803;53.586;10.040;2022-10-23T07:14:56;21.20;54.60
35680;DHT22;21803;53.586;10.040;2022-10-23T07:17:21;21.20;54.50
35680;DHT22;21803;53.586;10.040;2022-10-23T07:19:47;21.20;54.60
35680;DHT22;21803;53.586;10.040;2022-10-23T07:22:13;21.20;54.50
35680;DHT22;21803;53.586;10.040;2022-10-23T07:24:38;21.20;54.60
35680;DHT22;21803;53.586;10.040;2022-10-23T07:27:05;21.20;54.50
35680;DHT22;21803;53.586;10.040;2022-10-23T07:29:31;21.20;54.50
35680;DHT22;21803;53.586;10.040;2022-10-23T07:31:57;21.20;54.50
35680;DHT22;21803;53.586;10.040;2022-10-23T07:34:25;21.20;54.50
35680;DHT22;21803;53.586;10.040;2022-10-23T07:36:51;21.20;54.50
35680;DHT22;21803;53.586;10.040;2022-10-23T07:39:16;21.20;54.50
35680;DHT22;21803;53.586;10.040;2022-10-23T07:41:42;21.20;54.50
35680;DHT22;21803;53.586;10.040;2022-10-23T07:44:07;21.20;54.50
35680;DHT22;21803;53.586;10.040;2022-10-23T07:46:33;21.10;54.50
35680;DHT22;21803;53.586;10.040;2022-10-23T07:48:58;21.20;54.50
35680;DHT22;21803;53.586;10.040;2022-10-23T07:51:24;21.20;54.50
35680;DHT22;21803;53.586;10.040;2022-10-23T07:53:49;21.20;54.50
35680;DHT22;21803;53.586;10.040;2022-10-23T07:56:19;21.20;54.50
35680;DHT22;21803;53.586;10.040;2022-10-23T07:58:45;21.20;54.50
35680;DHT22;21803;53.586;10.040;2022-10-23T08:01:23;21.20;54.50
35680;DHT22;21803;53.586;10.040;2022-10-23T08:03:50;21.20;54.50
35680;DHT22;21803;53.586;10.040;2022-10-23T08:06:16;21.20;54.50
35680;DHT22;21803;53.586;10.040;2022-10-23T08:08:41;21.20;54.40
35680;DHT22;21803;53.586;10.040;2022-10-23T08:11:10;21.60;54.60
35680;DHT22;21803;53.586;10.040;2022-10-23T08:13:36;21.20;54.40
35680;DHT22;21803;53.586;10.040;2022-10-23T08:16:02;21.20;54.50
35680;DHT22;21803;53.586;10.040;2022-10-23T08:18:28;21.20;54.40
35680;DHT22;21803;53.586;10.040;2022-10-23T08:20:59;21.20;54.40
35680;DHT22;21803;53.586;10.040;2022-10-23T08:23:25;21.20;54.40
35680;DHT22;21803;53.586;10.040;2022-10-23T08:25:56;21.20;54.40
35680;DHT22;21803;53.586;10.040;2022-10-23T08:28:23;21.20;54.40
35680;DHT22;21803;53.586;10.040;2022-10-23T08:30:48;21.20;54.40
35680;DHT22;21803;53.586;10.040;2022-10-23T08:33:14;21.20;54.40
35680;DHT22;21803;53.586;10.040;2022-10-23T08:35:40;21.20;54.40
35680;DHT22;21803;53.586;10.040;2022-10-23T08:38:06;21.20;54.40
35680;DHT22;21803;53.586;10.040;2022-10-23T08:40:32;21.20;54.40
35680;DHT22;21803;53.586;10.040;2022-10-23T08:43:04;21.20;54.40
35680;DHT22;21803;53.586;10.040;2022-10-23T08:45:43;21.20;54.40
35680;DHT22;21803;53.586;10.040;2022-10-23T08:50:46;21.20;54.30
35680;DHT22;21803;53.586;10.040;2022-10-23T08:53:35;21.20;54.30
35680;DHT22;21803;53.586;10.040;2022-10-23T08:56:06;21.20;54.40
35680;DHT22;21803;53.586;10.040;2022-10-23T08:58:44;21.20;54.40
35680;DHT22;21803;53.586;10.040;2022-10-23T09:02:30;21.20;54.30
35680;DHT22;21803;53.586;10.040;2022-10-23T09:04:24;21.20;54.40
35680;DHT22;21803;53.586;10.040;2022-10-23T09:07:08;21.20;54.30
35680;DHT22;21803;53.586;10.040;2022-10-23T09:12:25;21.20;54.30
35680;DHT22;21803;53.586;10.040;2022-10-23T09:17:43;21.20;54.30
35680;DHT22;21803;53.586;10.040;2022-10-23T09:20:11;21.20;54.30
35680;DHT22;21803;53.586;10.040;2022-10-23T09:22:38;21.20;54.40
35680;DHT22;21803;53.586;10.040;2022-10-23T09:25:25;21.20;54.30
35680;DHT22;21803;53.586;10.040;2022-10-23T09:27:53;21.20;54.30
35680;DHT22;21803;53.586;10.040;2022-10-23T09:32:57;21.20;54.30
35680;DHT22;21803;53.586;10.040;2022-10-23T09:35:26;21.20;54.30
35680;DHT22;21803;53.586;10.040;2022-10-23T09:37:53;21.20;54.30
35680;DHT22;21803;53.586;10.040;2022-10-23T09:43:01;21.20;54.30
35680;DHT22;21803;53.586;10.040;2022-10-23T09:45:34;21.20;54.30
35680;DHT22;21803;53.586;10.040;2022-10-23T09:48:05;21.20;54.30
35680;DHT22;21803;53.586;10.040;2022-10-23T09:50:31;21.20;54.30
35680;DHT22;21803;53.586;10.040;2022-10-23T09:52:57;21.20;54.30
35680;DHT22;21803;53.586;10.040;2022-10-23T09:55:24;21.20;54.30
35680;DHT22;21803;53.586;10.040;2022-10-23T09:57:51;21.20;54.30
35680;DHT22;21803;53.586;10.040;2022-10-23T10:00:19;21.20;54.90
35680;DHT22;21803;53.586;10.040;2022-10-23T10:03:01;21.20;54.30
35680;DHT22;21803;53.586;10.040;2022-10-23T10:05:35;21.20;54.30
35680;DHT22;21803;53.586;10.040;2022-10-23T10:10:38;21.20;54.30
35680;DHT22;21803;53.586;10.040;2022-10-23T10:15:58;21.20;54.20
35680;DHT22;21803;53.586;10.040;2022-10-23T10:21:05;21.30;54.30
35680;DHT22;21803;53.586;10.040;2022-10-23T10:23:43;21.30;54.30
35680;DHT22;21803;53.586;10.040;2022-10-23T10:34:42;21.30;54.30
35680;DHT22;21803;53.586;10.040;2022-10-23T10:37:20;21.30;54.30
35680;DHT22;21803;53.586;10.040;2022-10-23T10:40:02;19.50;53.40
35680;DHT22;21803;53.586;10.040;2022-10-23T10:45:40;21.30;54.20
35680;DHT22;21803;53.586;10.040;2022-10-23T10:51:41;21.30;54.30
35680;DHT22;21803;53.586;10.040;2022-10-23T10:54:23;21.30;54.20
35680;DHT22;21803;53.586;10.040;2022-10-23T10:56:54;21.30;54.90
35680;DHT22;21803;53.586;10.040;2022-10-23T10:59:30;21.30;54.30
35680;DHT22;21803;53.586;10.040;2022-10-23T11:02:34;21.30;54.30
35680;DHT22;21803;53.586;10.040;2022-10-23T11:08:12;21.20;54.20
35680;DHT22;21803;53.586;10.040;2022-10-23T11:10:44;21.30;54.30
35680;DHT22;21803;53.586;10.040;2022-10-23T11:13:25;21.30;54.20
35680;DHT22;21803;53.586;10.040;2022-10-23T11:15:55;21.30;54.30
35680;DHT22;21803;53.586;10.040;2022-10-23T11:18:25;21.30;54.30
35680;DHT22;21803;53.586;10.040;2022-10-23T11:21:25;21.30;54.30
35680;DHT22;21803;53.586;10.040;2022-10-23T11:26:33;21.30;54.30
35680;DHT22;21803;53.586;10.040;2022-10-23T11:32:23;21.30;54.20
35680;DHT22;21803;53.586;10.040;2022-10-23T11:37:32;21.20;54.20
35680;DHT22;21803;53.586;10.040;2022-10-23T11:40:02;21.30;54.30
35680;DHT22;21803;53.586;10.040;2022-10-23T11:45:31;21.30;54.30
35680;DHT22;21803;53.586;10.040;2022-10-23T11:48:04;21.30;54.30
35680;DHT22;21803;53.586;10.040;2022-10-23T11:50:33;21.30;54.20
35680;DHT22;21803;53.586;10.040;2022-10-23T11:53:38;21.30;54.20
35680;DHT22;21803;53.586;10.040;2022-10-23T11:58:50;21.20;54.20
35680;DHT22;21803;53.586;10.040;2022-10-23T12:01:35;21.30;54.30
35680;DHT22;21803;53.586;10.040;2022-10-23T12:09:39;21.30;54.20
35680;DHT22;21803;53.586;10.040;2022-10-23T12:14:37;21.20;54.30
35680;DHT22;21803;53.586;10.040;2022-10-23T12:22:47;21.30;54.30
35680;DHT22;21803;53.586;10.040;2022-10-23T12:25:21;21.30;54.30
35680;DHT22;21803;53.586;10.040;2022-10-23T12:28:14;21.30;54.20
35680;DHT22;21803;53.586;10.040;2022-10-23T12:33:45;21.30;54.20
35680;DHT22;21803;53.586;10.040;2022-10-23T12:39:40;21.30;54.20
35680;DHT22;21803;53.586;10.040;2022-10-23T12:42:15;20.40;53.80
35680;DHT22;21803;53.586;10.040;2022-10-23T12:44:43;21.30;54.20
35680;DHT22;21803;53.586;10.040;2022-10-23T12:47:15;21.30;54.20
35680;DHT22;21803;53.586;10.040;2022-10-23T12:49:48;21.30;54.20
35680;DHT22;21803;53.586;10.040;2022-10-23T12:52:16;21.30;54.20
35680;DHT22;21803;53.586;10.040;2022-10-23T12:54:42;21.30;54.20
35680;DHT22;21803;53.586;10.040;2022-10-23T12:57:28;21.30;54.20
35680;DHT22;21803;53.586;10.040;2022-10-23T13:00:00;21.30;54.20
35680;DHT22;21803;53.586;10.040;2022-10-23T13:02:29;21.30;54.20
35680;DHT22;21803;53.586;10.040;2022-10-23T13:04:57;21.30;54.20
35680;DHT22;21803;53.586;10.040;2022-10-23T13:07:44;21.30;54.20
35680;DHT22;21803;53.586;10.040;2022-10-23T13:10:14;21.30;54.20
35680;DHT22;21803;53.586;10.040;2022-10-23T13:12:40;21.30;54.20
35680;DHT22;21803;53.586;10.040;2022-10-23T13:20:20;21.30;54.20
35680;DHT22;21803;53.586;10.040;2022-10-23T13:25:37;21.30;54.30
35680;DHT22;21803;53.586;10.040;2022-10-23T13:30:41;21.30;54.90
35680;DHT22;21803;53.586;10.040;2022-10-23T13:36:17;21.30;55.60
35680;DHT22;21803;53.586;10.040;2022-10-23T13:38:47;21.20;55.80
35680;DHT22;21803;53.586;10.040;2022-10-23T13:41:23;21.30;56.30
35680;DHT22;21803;53.586;10.040;2022-10-23T13:43:49;21.20;56.30
35680;DHT22;21803;53.586;10.040;2022-10-23T13:46:16;21.30;56.20
35680;DHT22;21803;53.586;10.040;2022-10-23T13:48:42;21.30;56.40
35680;DHT22;21803;53.586;10.040;2022-10-23T13:51:14;21.30;56.70
35680;DHT22;21803;53.586;10.040;2022-10-23T13:53:40;21.30;56.70
35680;DHT22;21803;53.586;10.040;2022-10-23T13:56:07;21.30;56.70
35680;DHT22;21803;53.586;10.040;2022-10-23T13:58:33;21.30;56.90
35680;DHT22;21803;53.586;10.040;2022-10-23T14:00:59;21.30;57.00
35680;DHT22;21803;53.586;10.040;2022-10-23T14:03:25;21.30;56.90
35680;DHT22;21803;53.586;10.040;2022-10-23T14:05:50;21.20;57.10
35680;DHT22;21803;53.586;10.040;2022-10-23T14:08:16;21.20;57.20
35680;DHT22;21803;53.586;10.040;2022-10-23T14:10:42;21.30;57.20
35680;DHT22;21803;53.586;10.040;2022-10-23T14:13:08;21.30;57.40
35680;DHT22;21803;53.586;10.040;2022-10-23T14:15:34;21.30;57.30
35680;DHT22;21803;53.586;10.040;2022-10-23T14:18:00;21.20;57.90
35680;DHT22;21803;53.586;10.040;2022-10-23T14:20:25;21.30;57.40
35680;DHT22;21803;53.586;10.040;2022-10-23T14:22:51;21.20;57.50
35680;DHT22;21803;53.586;10.040;2022-10-23T14:25:16;21.30;57.60
35680;DHT22;21803;53.586;10.040;2022-10-23T14:27:43;21.30;57.60
35680;DHT22;21803;53.586;10.040;2022-10-23T14:30:09;21.30;58.00
35680;DHT22;21803;53.586;10.040;2022-10-23T14:32:35;21.30;58.00
35680;DHT22;21803;53.586;10.040;2022-10-23T14:35:00;21.20;58.30
35680;DHT22;21803;53.586;10.040;2022-10-23T14:37:29;21.30;58.00
35680;DHT22;21803;53.586;10.040;2022-10-23T14:39:55;21.20;58.20
35680;DHT22;21803;53.586;10.040;2022-10-23T14:42:20;21.20;58.60
35680;DHT22;21803;53.586;10.040;2022-10-23T14:44:46;21.30;58.70
35680;DHT22;21803;53.586;10.040;2022-10-23T14:47:13;21.30;58.60
35680;DHT22;21803;53.586;10.040;2022-10-23T14:49:39;21.20;58.70
35680;DHT22;21803;53.586;10.040;2022-10-23T14:52:05;21.20;58.90
35680;DHT22;21803;53.586;10.040;2022-10-23T14:54:31;21.20;59.00
35680;DHT22;21803;53.586;10.040;2022-10-23T14:56:58;22.30;59.50
35680;DHT22;21803;53.586;10.040;2022-10-23T14:59:24;21.20;59.20
35680;DHT22;21803;53.586;10.040;2022-10-23T15:01:49;21.20;59.30
35680;DHT22;21803;53.586;10.040;2022-10-23T15:04:15;21.20;59.30
35680;DHT22;21803;53.586;10.040;2022-10-23T15:06:41;21.20;59.60
35680;DHT22;21803;53.586;10.040;2022-10-23T15:09:06;21.20;59.70
35680;DHT22;21803;53.586;10.040;2022-10-23T15:11:32;21.20;59.70
35680;DHT22;21803;53.586;10.040;2022-10-23T15:13:58;21.20;59.90
35680;DHT22;21803;53.586;10.040;2022-10-23T15:16:24;21.20;60.10
35680;DHT22;21803;53.586;10.040;2022-10-23T15:18:50;21.20;60.10
35680;DHT22;21803;53.586;10.040;2022-10-23T15:21:16;21.20;60.30
35680;DHT22;21803;53.586;10.040;2022-10-23T15:23:43;21.20;60.50
35680;DHT22;21803;53.586;10.040;2022-10-23T15:26:12;21.20;60.50
35680;DHT22;21803;53.586;10.040;2022-10-23T15:28:41;21.20;60.90
35680;DHT22;21803;53.586;10.040;2022-10-23T15:31:38;21.20;60.90
35680;DHT22;21803;53.586;10.040;2022-10-23T15:34:13;21.20;60.90
35680;DHT22;21803;53.586;10.040;2022-10-23T15:36:39;21.20;61.10
35680;DHT22;21803;53.586;10.040;2022-10-23T15:39:07;21.20;61.30
35680;DHT22;21803;53.586;10.040;2022-10-23T15:41:34;21.20;61.20
35680;DHT22;21803;53.586;10.040;2022-10-23T15:44:01;21.20;61.40
35680;DHT22;21803;53.586;10.040;2022-10-23T15:46:27;21.20;61.40
35680;DHT22;21803;53.586;10.040;2022-10-23T15:48:53;21.20;61.60
35680;DHT22;21803;53.586;10.040;2022-10-23T15:51:19;21.20;61.70
35680;DHT22;21803;53.586;10.040;2022-10-23T15:53:44;21.20;61.90
35680;DHT22;21803;53.586;10.040;2022-10-23T15:56:10;21.20;61.90
35680;DHT22;21803;53.586;10.040;2022-10-23T15:58:35;21.20;61.90
35680;DHT22;21803;53.586;10.040;2022-10-23T16:01:02;21.20;62.00
35680;DHT22;21803;53.586;10.040;2022-10-23T16:03:31;21.20;62.10
35680;DHT22;21803;53.586;10.040;2022-10-23T16:05:56;21.20;62.20
35680;DHT22;21803;53.586;10.040;2022-10-23T16:08:22;21.20;62.20
35680;DHT22;21803;53.586;10.040;2022-10-23T16:10:50;21.20;62.40
35680;DHT22;21803;53.586;10.040;2022-10-23T16:13:16;21.20;62.60
35680;DHT22;21803;53.586;10.040;2022-10-23T16:15:41;21.20;62.50
35680;DHT22;21803;53.586;10.040;2022-10-23T16:18:07;21.20;62.70
35680;DHT22;21803;53.586;10.040;2022-10-23T16:20:33;21.20;62.60
35680;DHT22;21803;53.586;10.040;2022-10-23T16:22:59;21.20;62.70
35680;DHT22;21803;53.586;10.040;2022-10-23T16:25:24;21.20;62.80
35680;DHT22;21803;53.586;10.040;2022-10-23T16:27:50;21.20;62.70
35680;DHT22;21803;53.586;10.040;2022-10-23T16:30:15;21.20;62.80
35680;DHT22;21803;53.586;10.040;2022-10-23T16:32:41;21.20;63.00
35680;DHT22;21803;53.586;10.040;2022-10-23T16:35:07;21.20;63.90
35680;DHT22;21803;53.586;10.040;2022-10-23T16:37:32;21.20;63.10
35680;DHT22;21803;53.586;10.040;2022-10-23T16:39:58;21.20;63.10
35680;DHT22;21803;53.586;10.040;2022-10-23T16:42:25;21.20;63.20
35680;DHT22;21803;53.586;10.040;2022-10-23T16:44:51;21.20;63.20
35680;DHT22;21803;53.586;10.040;2022-10-23T16:47:16;21.20;63.20
35680;DHT22;21803;53.586;10.040;2022-10-23T16:49:42;21.20;63.50
35680;DHT22;21803;53.586;10.040;2022-10-23T16:52:08;21.20;63.60
35680;DHT22;21803;53.586;10.040;2022-10-23T16:54:33;21.20;63.50
35680;DHT22;21803;53.586;10.040;2022-10-23T16:56:59;21.20;63.60
35680;DHT22;21803;53.586;10.040;2022-10-23T16:59:24;21.20;63.60
35680;DHT22;21803;53.586;10.040;2022-10-23T17:01:50;21.20;63.70
35680;DHT22;21803;53.586;10.040;2022-10-23T17:04:15;21.20;63.80
35680;DHT22;21803;53.586;10.040;2022-10-23T17:06:41;21.20;63.90
35680;DHT22;21803;53.586;10.040;2022-10-23T17:09:07;21.20;64.00
35680;DHT22;21803;53.586;10.040;2022-10-23T17:11:35;21.20;64.30
35680;DHT22;21803;53.586;10.040;2022-10-23T17:14:13;21.20;64.30
35680;DHT22;21803;53.586;10.040;2022-10-23T17:16:48;21.20;64.40
35680;DHT22;21803;53.586;10.040;2022-10-23T17:19:15;21.20;64.50
35680;DHT22;21803;53.586;10.040;2022-10-23T17:21:41;21.20;64.70
35680;DHT22;21803;53.586;10.040;2022-10-23T17:24:08;21.20;64.70